Time;durP1;ratioP1;P1;durP2;ratioP2;P2;SDS_P1;SDS_P2;PMS_P1;PMS_P2;Temp;Humidity;BMP_temperature;BMP_pressure;BME280_temperature;BME280_humidity;BME280_pressure;Samples;Min_cycle;Max_cycle;Signal;HPM_P1;HPM_P2
2022/03/24 00:02:22;;;;;;;45.83;30.48;;;7.90;99.90;;;;;;5034187;28;20158;-73
2022/03/24 00:04:48;;;;;;;45.03;30.83;;;7.70;99.90;;;;;;5050193;28;20114;-73
2022/03/24 00:07:14;;;;;;;46.75;30.85;;;7.80;99.90;;;;;;5064846;28;20051;-73
2022/03/24 00:09:40;;;;;;;49.15;33.10;;;7.90;99.90;;;;;;5066217;28;20115;-72
2022/03/24 00:12:06;;;;;;;48.65;32.40;;;7.80;99.90;;;;;;5069287;28;20068;-73
2022/03/24 00:14:32;;;;;;;50.00;32.55;;;8.00;99.90;;;;;;5035121;28;20021;-73
2022/03/24 00:16:58;;;;;;;54.40;35.63;;;8.10;99.90;;;;;;5071126;28;20086;-73
2022/03/24 00:19:24;;;;;;;49.30;31.80;;;8.20;99.90;;;;;;5067816;28;20032;-73
2022/03/24 00:21:50;;;;;;;54.30;34.83;;;8.10;99.90;;;;;;5077133;28;20331;-73
2022/03/24 00:24:16;;;;;;;51.10;33.30;;;8.10;99.90;;;;;;5073633;28;20056;-73
2022/03/24 00:26:41;;;;;;;55.83;35.70;;;8.10;99.90;;;;;;5033297;28;20051;-73
2022/03/24 00:29:09;;;;;;;46.83;31.20;;;8.20;99.90;;;;;;5068402;28;20040;-73
2022/03/24 00:31:35;;;;;;;52.70;33.80;;;8.00;99.90;;;;;;5054772;28;20207;-73
2022/03/24 00:34:01;;;;;;;50.40;34.80;;;8.10;99.90;;;;;;5061767;28;20081;-74
2022/03/24 00:36:27;;;;;;;53.28;36.08;;;8.20;99.90;;;;;;5050763;28;20044;-74
2022/03/24 00:38:53;;;;;;;59.45;33.45;;;8.10;99.90;;;;;;5068206;28;20099;-73
2022/03/24 00:41:20;;;;;;;56.22;35.40;;;8.10;99.90;;;;;;5068025;28;20074;-73
2022/03/24 00:43:48;;;;;;;52.83;33.92;;;8.10;99.90;;;;;;5052380;28;20048;-73
2022/03/24 00:46:15;;;;;;;52.15;33.58;;;8.20;99.90;;;;;;5052932;28;20048;-74
2022/03/24 00:48:41;;;;;;;54.47;34.47;;;8.10;99.90;;;;;;5066444;28;20044;-73
2022/03/24 00:51:07;;;;;;;58.90;36.38;;;8.20;99.90;;;;;;5055554;28;20077;-73
2022/03/24 00:53:32;;;;;;;50.38;32.28;;;8.20;99.90;;;;;;5035357;28;20210;-73
2022/03/24 00:55:59;;;;;;;48.15;32.40;;;8.10;99.90;;;;;;5055002;28;20143;-73
2022/03/24 00:58:25;;;;;;;50.70;32.72;;;8.00;99.90;;;;;;5059597;28;20068;-73
2022/03/24 01:00:54;;;;;;;49.53;32.17;;;7.90;99.90;;;;;;5067395;28;20049;-73
2022/03/24 01:03:20;;;;;;;40.80;27.30;;;8.10;99.90;;;;;;5057816;28;20040;-73
2022/03/24 01:05:47;;;;;;;43.60;28.45;;;7.80;99.90;;;;;;5038661;28;20397;-73
2022/03/24 01:08:14;;;;;;;44.97;30.20;;;7.70;99.90;;;;;;5063290;28;20064;-73
2022/03/24 01:10:39;;;;;;;52.42;35.38;;;7.60;99.90;;;;;;5067459;28;20362;-73
2022/03/24 01:13:05;;;;;;;53.88;35.00;;;7.80;99.90;;;;;;5054871;28;20049;-72
2022/03/24 01:15:31;;;;;;;49.63;31.75;;;7.80;99.90;;;;;;5063374;28;20223;-72
2022/03/24 01:17:59;;;;;;;49.53;32.13;;;7.80;99.90;;;;;;5062916;28;20104;-73
2022/03/24 01:20:26;;;;;;;48.55;31.25;;;8.30;99.90;;;;;;5062253;28;20047;-72
2022/03/24 01:22:52;;;;;;;45.10;30.05;;;7.80;99.90;;;;;;5076780;28;20160;-73
2022/03/24 01:25:17;;;;;;;48.28;32.03;;;7.90;99.90;;;;;;5080495;28;20048;-73
2022/03/24 01:27:44;;;;;;;48.65;31.98;;;7.80;99.90;;;;;;5073536;28;20107;-73
2022/03/24 01:30:11;;;;;;;45.97;31.42;;;7.80;99.90;;;;;;5072810;28;20041;-73
2022/03/24 01:32:37;;;;;;;52.00;34.28;;;7.70;99.90;;;;;;5063321;28;20050;-73
2022/03/24 01:35:07;;;;;;;49.75;33.75;;;7.80;99.90;;;;;;5075903;28;20052;-73
2022/03/24 01:37:35;;;;;;;47.50;31.35;;;7.70;99.90;;;;;;5075995;28;20107;-73
2022/03/24 01:40:02;;;;;;;48.85;32.67;;;7.60;99.90;;;;;;5061364;28;20093;-73
2022/03/24 01:42:28;;;;;;;47.20;31.83;;;7.60;99.90;;;;;;5066092;28;20036;-74
2022/03/24 01:44:56;;;;;;;52.85;34.40;;;7.60;99.90;;;;;;5073979;28;20339;-74
2022/03/24 01:47:22;;;;;;;49.70;32.97;;;7.80;99.90;;;;;;5075337;28;20087;-74
2022/03/24 01:49:48;;;;;;;57.50;35.47;;;7.80;99.90;;;;;;5066733;28;20116;-75
2022/03/24 01:52:15;;;;;;;54.33;34.95;;;7.90;99.90;;;;;;5047518;28;20037;-75
2022/03/24 01:54:43;;;;;;;58.75;35.50;;;8.10;99.90;;;;;;5058234;28;20032;-74
2022/03/24 01:57:11;;;;;;;54.42;36.03;;;8.00;99.90;;;;;;5075482;28;21360;-74
2022/03/24 01:59:38;;;;;;;54.83;34.97;;;8.80;99.90;;;;;;5076413;28;20068;-74
2022/03/24 02:02:05;;;;;;;55.20;34.58;;;8.10;99.90;;;;;;5076470;28;20032;-75
2022/03/24 02:04:32;;;;;;;63.90;40.83;;;8.20;99.90;;;;;;5061529;28;20037;-73
2022/03/24 02:06:58;;;;;;;62.05;39.30;;;8.40;99.90;;;;;;5070173;28;20044;-72
2022/03/24 02:09:24;;;;;;;61.40;38.35;;;8.30;99.90;;;;;;5076851;28;20100;-73
2022/03/24 02:11:50;;;;;;;61.95;39.67;;;8.40;99.90;;;;;;5076051;28;20036;-73
2022/03/24 02:14:15;;;;;;;66.68;40.30;;;8.60;99.90;;;;;;5073307;28;20367;-73
2022/03/24 02:16:41;;;;;;;62.20;39.15;;;8.60;99.90;;;;;;5075335;28;20082;-73
2022/03/24 02:19:13;;;;;;;60.80;39.70;;;8.60;99.90;;;;;;5059955;28;20039;-75
2022/03/24 02:21:40;;;;;;;61.45;34.97;;;8.60;99.90;;;;;;5070120;28;20052;-73
2022/03/24 02:24:06;;;;;;;60.65;38.20;;;8.50;99.90;;;;;;5076987;28;20242;-74
2022/03/24 02:26:32;;;;;;;63.60;38.15;;;8.40;99.90;;;;;;5072866;28;20094;-73
2022/03/24 02:28:58;;;;;;;55.95;37.08;;;8.40;99.90;;;;;;5061243;28;20040;-74
2022/03/24 02:31:24;;;;;;;58.58;35.38;;;8.50;99.90;;;;;;5076436;28;20032;-76
2022/03/24 02:34:37;;;;;;;55.40;35.53;;;8.40;99.90;;;;;;5039106;28;20041;-74
2022/03/24 02:36:39;;;;;;;56.58;35.33;;;8.50;99.90;;;;;;5069108;28;20316;-74
2022/03/24 02:39:06;;;;;;;60.65;37.33;;;8.60;99.90;;;;;;5049376;28;20048;-73
2022/03/24 02:41:32;;;;;;;57.05;36.90;;;8.60;99.90;;;;;;5042590;28;20118;-73
2022/03/24 02:43:58;;;;;;;61.97;39.03;;;8.60;99.90;;;;;;5066035;28;20037;-74
2022/03/24 02:46:26;;;;;;;62.33;37.92;;;8.60;99.90;;;;;;5065439;28;20070;-74
2022/03/24 02:48:52;;;;;;;61.55;38.20;;;8.60;99.90;;;;;;5071672;28;20044;-73
2022/03/24 02:51:17;;;;;;;67.85;39.88;;;8.50;99.90;;;;;;5074691;28;20043;-74
2022/03/24 02:53:43;;;;;;;59.60;36.03;;;8.60;99.90;;;;;;5057010;28;20039;-73
2022/03/24 02:56:08;;;;;;;55.00;34.28;;;8.60;99.90;;;;;;5043941;28;20041;-73
2022/03/24 02:58:34;;;;;;;58.70;35.47;;;8.60;99.90;;;;;;5078225;28;20223;-73
2022/03/24 03:01:00;;;;;;;50.25;33.58;;;8.40;99.90;;;;;;5062081;28;20138;-72
2022/03/24 03:03:25;;;;;;;50.03;32.60;;;8.40;99.90;;;;;;5078385;28;20033;-74
2022/03/24 03:05:51;;;;;;;46.78;31.35;;;8.30;99.90;;;;;;5046451;28;20059;-74
2022/03/24 03:08:19;;;;;;;44.30;29.00;;;8.40;99.90;;;;;;5067868;28;20028;-73
2022/03/24 03:10:44;;;;;;;49.17;30.42;;;8.20;99.90;;;;;;5065787;28;20048;-73
2022/03/24 03:13:10;;;;;;;69.97;28.77;;;8.20;99.90;;;;;;5071515;28;20033;-73
2022/03/24 03:15:36;;;;;;;43.03;28.00;;;8.20;99.90;;;;;;5045976;28;20033;-72
2022/03/24 03:18:05;;;;;;;46.45;29.50;;;8.10;99.90;;;;;;5069424;28;20579;-73
2022/03/24 03:20:31;;;;;;;38.92;27.08;;;8.20;99.90;;;;;;5056264;28;20048;-72
2022/03/24 03:22:57;;;;;;;41.95;27.90;;;8.10;99.90;;;;;;5066864;28;20107;-73
2022/03/24 03:25:23;;;;;;;51.63;31.10;;;8.20;99.90;;;;;;5042440;28;20354;-73
2022/03/24 03:27:49;;;;;;;51.22;32.33;;;8.40;99.90;;;;;;5056285;28;21221;-73
2022/03/24 03:30:15;;;;;;;52.90;33.30;;;8.30;99.90;;;;;;5074229;28;20334;-72
2022/03/24 03:32:42;;;;;;;47.83;29.48;;;8.40;99.90;;;;;;5059695;28;20036;-73
2022/03/24 03:35:08;;;;;;;42.33;28.90;;;8.40;99.90;;;;;;5068073;28;20086;-73
2022/03/24 03:37:34;;;;;;;41.55;26.73;;;8.50;99.90;;;;;;5056554;28;20080;-73
2022/03/24 03:40:00;;;;;;;40.10;24.80;;;8.50;99.90;;;;;;5075786;28;20082;-73
2022/03/24 03:42:27;;;;;;;39.00;25.80;;;8.40;99.90;;;;;;5069830;28;20080;-73
2022/03/24 03:44:53;;;;;;;37.83;23.40;;;8.30;99.90;;;;;;5072562;28;20060;-73
2022/03/24 03:47:19;;;;;;;44.85;28.88;;;8.40;99.90;;;;;;5076175;28;20067;-73
2022/03/24 03:49:44;;;;;;;49.10;31.00;;;8.80;99.90;;;;;;5057254;28;20036;-73
2022/03/24 03:52:11;;;;;;;56.40;34.33;;;8.60;99.90;;;;;;5076122;28;20036;-73
2022/03/24 03:54:37;;;;;;;56.15;34.25;;;8.50;99.90;;;;;;5058822;28;20040;-73
2022/03/24 03:57:03;;;;;;;57.10;34.20;;;8.60;99.90;;;;;;5073591;28;20060;-74
2022/03/24 03:59:30;;;;;;;56.75;33.95;;;8.70;99.90;;;;;;5053459;28;20196;-73
2022/03/24 04:01:57;;;;;;;54.75;34.75;;;8.70;99.90;;;;;;5056189;28;20103;-74
2022/03/24 04:04:23;;;;;;;55.20;34.08;;;8.70;99.90;;;;;;5077806;28;20041;-73
2022/03/24 04:06:49;;;;;;;64.32;37.50;;;8.70;99.90;;;;;;5064837;28;20086;-74
2022/03/24 04:09:15;;;;;;;57.53;34.75;;;8.70;99.90;;;;;;5039140;28;20036;-73
2022/03/24 04:11:41;;;;;;;54.10;32.58;;;8.90;99.90;;;;;;5052310;28;20029;-73
2022/03/24 04:14:07;;;;;;;66.75;38.47;;;8.90;99.90;;;;;;5048281;28;20108;-73
2022/03/24 04:16:32;;;;;;;61.28;37.15;;;8.90;99.90;;;;;;5042759;28;20044;-74
2022/03/24 04:18:58;;;;;;;58.63;37.05;;;8.90;99.90;;;;;;5073833;28;20071;-74
2022/03/24 04:21:24;;;;;;;58.70;36.45;;;9.00;99.90;;;;;;5069609;28;20456;-75
2022/03/24 04:23:49;;;;;;;69.00;41.83;;;9.10;99.90;;;;;;5075795;28;20088;-74
2022/03/24 04:26:16;;;;;;;61.95;38.53;;;8.90;99.90;;;;;;5041536;28;20094;-75
2022/03/24 04:28:43;;;;;;;67.78;38.70;;;8.90;99.90;;;;;;5073008;28;20187;-74
2022/03/24 04:31:09;;;;;;;63.35;36.90;;;8.70;99.90;;;;;;5068495;28;20214;-74
2022/03/24 04:33:35;;;;;;;58.33;35.35;;;8.90;99.90;;;;;;5070329;28;20033;-74
2022/03/24 04:36:00;;;;;;;58.90;36.53;;;8.80;99.90;;;;;;5054781;28;20044;-74
2022/03/24 04:38:27;;;;;;;60.33;37.25;;;8.90;99.90;;;;;;5066598;28;20288;-74
2022/03/24 04:40:56;;;;;;;57.05;34.67;;;8.90;99.90;;;;;;5076745;28;20036;-74
2022/03/24 04:43:22;;;;;;;66.18;38.45;;;8.90;99.90;;;;;;5070589;28;20115;-75
2022/03/24 04:45:48;;;;;;;63.28;37.40;;;9.00;99.90;;;;;;5073759;28;20040;-76
2022/03/24 04:48:13;;;;;;;64.45;38.60;;;8.90;99.90;;;;;;5055404;28;20043;-75
2022/03/24 04:50:39;;;;;;;66.30;39.67;;;9.00;99.90;;;;;;5059579;28;20037;-74
2022/03/24 04:53:05;;;;;;;59.83;35.47;;;9.10;99.90;;;;;;5066761;28;20107;-74
2022/03/24 04:55:31;;;;;;;49.95;30.00;;;8.90;99.90;;;;;;5048678;28;20118;-74
2022/03/24 04:57:57;;;;;;;46.72;29.42;;;8.80;99.90;;;;;;5057628;28;20342;-74
2022/03/24 05:00:23;;;;;;;52.30;32.13;;;8.80;99.90;;;;;;5061564;28;20334;-74
2022/03/24 05:02:48;;;;;;;53.17;32.78;;;8.70;99.90;;;;;;5038240;28;20315;-74
2022/03/24 05:05:15;;;;;;;50.08;30.13;;;8.70;99.90;;;;;;5062950;28;20036;-75
2022/03/24 05:07:42;;;;;;;61.30;36.47;;;8.50;99.90;;;;;;5064496;28;20051;-75
2022/03/24 05:10:08;;;;;;;47.42;28.40;;;8.70;99.90;;;;;;5060307;28;20037;-75
2022/03/24 05:12:36;;;;;;;51.78;30.13;;;8.60;99.90;;;;;;5078139;28;20214;-75
2022/03/24 05:15:02;;;;;;;44.15;27.10;;;8.50;99.90;;;;;;5080972;28;20364;-74
2022/03/24 05:17:28;;;;;;;48.90;30.02;;;8.40;99.90;;;;;;5050798;28;20048;-73
2022/03/24 05:19:54;;;;;;;50.08;31.60;;;8.60;99.90;;;;;;5057085;28;20101;-72
2022/03/24 05:22:19;;;;;;;49.85;28.25;;;8.50;99.90;;;;;;5060134;28;20047;-73
2022/03/24 05:24:45;;;;;;;41.80;26.90;;;8.40;99.90;;;;;;5065352;28;20147;-73
2022/03/24 05:27:11;;;;;;;53.47;28.67;;;8.60;99.90;;;;;;5074765;28;20044;-71
2022/03/24 05:29:38;;;;;;;44.75;27.48;;;8.60;99.90;;;;;;5065014;28;20113;-72
2022/03/24 05:32:04;;;;;;;59.17;35.03;;;8.60;99.90;;;;;;5056461;28;20105;-71
2022/03/24 05:34:31;;;;;;;55.55;34.53;;;8.70;99.90;;;;;;5069797;28;20645;-72
2022/03/24 05:36:57;;;;;;;59.17;34.33;;;8.60;99.90;;;;;;5057810;28;20135;-71
2022/03/24 05:39:23;;;;;;;66.00;40.38;;;8.80;99.90;;;;;;5056901;28;20425;-72
2022/03/24 05:41:49;;;;;;;66.07;38.95;;;9.00;99.90;;;;;;5053472;28;20036;-72
2022/03/24 05:44:14;;;;;;;67.70;39.05;;;9.00;99.90;;;;;;5056446;28;20063;-73
2022/03/24 05:46:44;;;;;;;64.75;38.42;;;9.00;99.90;;;;;;5064972;28;20052;-72
2022/03/24 05:49:15;;;;;;;66.30;40.45;;;9.00;99.90;;;;;;5072075;28;20049;-73
2022/03/24 05:51:44;;;;;;;65.05;37.67;;;8.90;99.90;;;;;;5068777;28;20051;-73
2022/03/24 05:54:12;;;;;;;56.33;34.75;;;8.80;99.90;;;;;;5062593;28;20265;-73
2022/03/24 05:56:38;;;;;;;54.35;33.13;;;8.80;99.90;;;;;;5064385;28;20040;-73
2022/03/24 05:59:04;;;;;;;52.50;31.90;;;8.90;99.90;;;;;;5048448;28;20037;-73
2022/03/24 06:01:30;;;;;;;59.80;35.85;;;8.70;99.90;;;;;;5068425;28;20070;-73
2022/03/24 06:03:59;;;;;;;55.92;33.28;;;8.80;99.90;;;;;;5076910;28;20248;-73
2022/03/24 06:06:26;;;;;;;56.05;33.15;;;8.80;99.90;;;;;;5060929;28;20116;-73
2022/03/24 06:08:54;;;;;;;59.25;34.58;;;8.70;99.90;;;;;;5061754;28;20059;-73
2022/03/24 06:11:20;;;;;;;60.90;36.65;;;8.90;99.90;;;;;;5078596;28;20075;-73
2022/03/24 06:13:46;;;;;;;59.15;36.45;;;8.90;99.90;;;;;;5063980;28;20239;-74
2022/03/24 06:16:15;;;;;;;61.00;36.13;;;9.20;99.90;;;;;;5065916;28;20383;-73
2022/03/24 06:18:41;;;;;;;52.72;33.92;;;9.20;99.90;;;;;;5059945;28;20040;-73
2022/03/24 06:21:08;;;;;;;43.85;27.48;;;9.10;99.90;;;;;;5076484;28;20083;-73
2022/03/24 06:23:34;;;;;;;44.63;29.05;;;9.10;99.90;;;;;;5073832;28;20048;-73
2022/03/24 06:26:00;;;;;;;47.90;29.95;;;9.10;99.90;;;;;;5059606;28;20040;-73
2022/03/24 06:28:27;;;;;;;41.80;27.67;;;9.30;99.90;;;;;;5063059;28;20036;-74
2022/03/24 06:30:53;;;;;;;40.35;26.38;;;9.40;99.90;;;;;;5063344;28;20059;-74
2022/03/24 06:33:19;;;;;;;38.80;24.58;;;9.20;99.90;;;;;;5062014;28;20037;-73
2022/03/24 06:35:46;;;;;;;48.42;30.65;;;9.20;99.90;;;;;;5066075;28;20049;-73
2022/03/24 06:38:13;;;;;;;51.10;31.42;;;9.60;99.90;;;;;;5078595;28;20052;-74
2022/03/24 06:40:40;;;;;;;52.47;31.45;;;9.70;99.90;;;;;;5082012;28;20175;-74
2022/03/24 06:43:07;;;;;;;48.05;28.70;;;9.80;99.90;;;;;;5063345;28;20136;-74
2022/03/24 06:45:34;;;;;;;51.60;30.27;;;10.20;99.90;;;;;;5045870;28;20075;-74
2022/03/24 06:48:00;;;;;;;51.75;32.13;;;10.30;99.90;;;;;;5064603;28;20033;-73
2022/03/24 06:50:26;;;;;;;43.80;27.35;;;10.20;99.90;;;;;;5062609;28;20136;-74
2022/03/24 06:52:52;;;;;;;39.45;25.08;;;10.30;99.90;;;;;;5049247;28;20108;-75
2022/03/24 06:55:19;;;;;;;39.08;25.95;;;10.40;99.90;;;;;;5075973;28;20045;-75
2022/03/24 06:57:45;;;;;;;43.55;27.75;;;10.40;99.90;;;;;;5050901;28;20441;-73
2022/03/24 07:00:12;;;;;;;45.08;28.45;;;10.60;99.90;;;;;;5055002;28;20148;-74
2022/03/24 07:02:38;;;;;;;45.38;29.58;;;10.60;99.90;;;;;;5049278;28;20365;-74
2022/03/24 07:05:04;;;;;;;49.75;33.13;;;10.80;99.90;;;;;;5069842;28;20045;-73
2022/03/24 07:07:30;;;;;;;52.00;32.20;;;10.70;99.90;;;;;;5052788;28;20037;-73
2022/03/24 07:09:56;;;;;;;52.80;34.47;;;10.80;99.90;;;;;;5049048;28;20040;-73
2022/03/24 07:12:22;;;;;;;55.75;35.33;;;11.10;99.90;;;;;;5049586;28;20078;-72
2022/03/24 07:14:48;;;;;;;52.75;34.65;;;11.20;99.90;;;;;;5073366;28;20044;-73
2022/03/24 07:17:14;;;;;;;56.50;35.45;;;11.60;99.90;;;;;;5065418;28;20273;-74
2022/03/24 07:19:40;;;;;;;52.25;33.95;;;11.80;99.90;;;;;;5065209;28;20036;-74
2022/03/24 07:22:06;;;;;;;52.40;34.97;;;11.80;99.90;;;;;;5035498;28;20115;-73
2022/03/24 07:24:32;;;;;;;50.58;34.42;;;12.10;99.90;;;;;;5027582;28;20053;-71
2022/03/24 07:26:57;;;;;;;53.75;33.85;;;12.20;99.90;;;;;;5042817;28;20080;-73
2022/03/24 07:29:24;;;;;;;52.72;36.20;;;12.30;99.90;;;;;;5027653;28;20045;-73
2022/03/24 07:31:50;;;;;;;54.33;36.75;;;12.60;99.90;;;;;;5043062;28;20037;-73
2022/03/24 07:34:17;;;;;;;61.70;38.38;;;12.70;99.90;;;;;;5044492;28;20104;-73
2022/03/24 07:36:43;;;;;;;56.72;37.60;;;12.50;99.90;;;;;;5044595;28;20099;-74
2022/03/24 07:39:10;;;;;;;55.75;36.08;;;12.60;99.90;;;;;;5027785;28;20056;-74
2022/03/24 07:41:36;;;;;;;56.80;37.22;;;12.60;99.90;;;;;;5044314;28;20215;-73
2022/03/24 07:44:02;;;;;;;55.25;37.47;;;12.60;99.90;;;;;;5025054;28;20117;-72
2022/03/24 07:46:28;;;;;;;55.20;37.70;;;12.70;99.90;;;;;;5023253;28;20091;-73
2022/03/24 07:48:54;;;;;;;59.78;39.40;;;12.50;99.90;;;;;;5034768;28;20444;-73
2022/03/24 07:51:20;;;;;;;58.97;38.88;;;12.40;99.90;;;;;;5044709;28;20331;-74
2022/03/24 07:53:48;;;;;;;54.45;37.88;;;12.20;99.90;;;;;;5039218;28;20037;-74
2022/03/24 07:56:16;;;;;;;55.33;36.72;;;12.10;99.90;;;;;;5026660;28;20053;-73
2022/03/24 07:58:41;;;;;;;52.70;34.70;;;11.90;99.90;;;;;;5008690;28;20041;-73
2022/03/24 08:01:08;;;;;;;50.70;35.55;;;12.00;99.90;;;;;;5043958;28;20101;-72
2022/03/24 08:03:34;;;;;;;54.50;35.70;;;12.00;99.90;;;;;;5027761;28;20045;-74
2022/03/24 08:06:03;;;;;;;51.90;35.58;;;12.10;99.90;;;;;;5027550;28;20097;-74
2022/03/24 08:08:30;;;;;;;48.60;34.20;;;11.70;99.90;;;;;;5043886;28;20058;-72
2022/03/24 08:10:56;;;;;;;54.65;36.47;;;11.90;99.90;;;;;;5025990;28;20040;-72
2022/03/24 08:13:23;;;;;;;51.33;35.50;;;11.70;99.90;;;;;;5025707;28;20045;-73
2022/03/24 08:15:50;;;;;;;51.67;36.60;;;11.70;99.90;;;;;;5025137;28;20069;-72
2022/03/24 08:18:17;;;;;;;53.25;36.10;;;11.60;99.90;;;;;;5026267;28;20052;-73
2022/03/24 08:20:47;;;;;;;51.90;34.72;;;11.60;99.90;;;;;;5040933;28;20032;-73
2022/03/24 08:23:13;;;;;;;49.72;35.13;;;11.70;99.90;;;;;;5074691;28;20108;-72
2022/03/24 08:25:41;;;;;;;49.55;34.17;;;11.40;99.90;;;;;;5062646;28;20057;-72
2022/03/24 08:28:07;;;;;;;48.47;34.40;;;11.30;99.90;;;;;;5071323;28;20040;-74
2022/03/24 08:30:33;;;;;;;54.08;35.17;;;11.40;99.90;;;;;;5027733;28;20048;-72
2022/03/24 08:32:59;;;;;;;51.97;36.85;;;11.40;99.90;;;;;;5061016;28;20126;-73
2022/03/24 08:35:25;;;;;;;57.10;37.22;;;11.40;99.90;;;;;;5064267;28;20356;-73
2022/03/24 08:37:51;;;;;;;54.42;37.13;;;11.50;99.90;;;;;;5042063;28;20063;-71
2022/03/24 08:40:17;;;;;;;51.28;36.25;;;11.70;99.90;;;;;;5059335;28;20138;-73
2022/03/24 08:42:44;;;;;;;51.42;34.45;;;11.80;99.90;;;;;;5061674;28;20049;-73
2022/03/24 08:45:15;;;;;;;51.22;33.17;;;11.70;99.90;;;;;;5062302;28;20048;-72
2022/03/24 08:47:41;;;;;;;49.25;33.65;;;11.70;99.90;;;;;;5070684;28;20380;-73
2022/03/24 08:50:08;;;;;;;49.58;34.15;;;11.80;99.90;;;;;;5059346;28;20036;-72
2022/03/24 08:52:35;;;;;;;50.83;34.20;;;11.90;99.90;;;;;;5052521;28;20134;-73
2022/03/24 08:55:05;;;;;;;50.85;34.58;;;12.00;99.90;;;;;;5058838;28;20242;-72
2022/03/24 08:57:31;;;;;;;50.03;34.10;;;12.00;99.90;;;;;;5062717;28;20041;-73
2022/03/24 09:00:02;;;;;;;48.10;34.50;;;12.00;99.90;;;;;;5048570;28;20170;-72
2022/03/24 09:02:28;;;;;;;47.33;34.42;;;12.20;99.90;;;;;;5064241;28;20103;-72
2022/03/24 09:04:54;;;;;;;50.67;34.13;;;12.20;99.90;;;;;;5078068;28;20144;-71
2022/03/24 09:07:20;;;;;;;50.22;33.65;;;12.30;99.90;;;;;;5064907;28;20040;-73
2022/03/24 09:09:46;;;;;;;46.55;33.30;;;12.40;99.90;;;;;;5067448;28;20045;-72
2022/03/24 09:12:13;;;;;;;50.13;34.78;;;12.60;99.90;;;;;;5049478;28;20235;-74
2022/03/24 09:14:40;;;;;;;47.85;33.28;;;12.50;99.90;;;;;;5072508;28;20178;-75
2022/03/24 09:17:07;;;;;;;49.10;33.75;;;12.60;99.90;;;;;;5066044;28;20057;-75
2022/03/24 09:19:33;;;;;;;47.03;32.85;;;12.80;99.90;;;;;;5071678;28;20051;-72
2022/03/24 09:22:00;;;;;;;54.17;34.50;;;13.00;99.90;;;;;;5022509;28;20064;-74
2022/03/24 09:24:26;;;;;;;52.17;34.42;;;13.40;99.90;;;;;;5054003;28;20119;-73
2022/03/24 09:26:53;;;;;;;48.45;35.25;;;13.40;99.90;;;;;;5040149;28;20055;-73
2022/03/24 09:29:19;;;;;;;47.38;34.03;;;13.20;99.90;;;;;;5070636;28;20044;-73
2022/03/24 09:31:47;;;;;;;46.20;34.63;;;13.70;99.90;;;;;;5069805;28;20384;-73
2022/03/24 09:34:12;;;;;;;48.95;34.25;;;13.70;99.90;;;;;;5056240;28;20250;-73
2022/03/24 09:36:39;;;;;;;51.58;35.67;;;14.00;99.90;;;;;;5059488;28;20225;-74
2022/03/24 09:39:05;;;;;;;54.22;34.55;;;14.00;99.90;;;;;;5028314;28;20122;-74
2022/03/24 09:41:31;;;;;;;50.97;35.88;;;14.10;99.90;;;;;;5054785;28;20071;-73
2022/03/24 09:43:58;;;;;;;48.08;34.67;;;14.30;99.90;;;;;;5039399;28;20488;-75
2022/03/24 09:46:28;;;;;;;51.40;34.80;;;14.40;99.90;;;;;;5063025;28;20128;-74
2022/03/24 09:48:55;;;;;;;47.20;33.55;;;14.70;99.90;;;;;;5068730;28;20354;-74
2022/03/24 09:51:25;;;;;;;49.30;36.25;;;14.80;99.90;;;;;;5046302;28;20041;-75
2022/03/24 09:53:52;;;;;;;49.38;35.47;;;14.70;99.90;;;;;;5057038;28;20154;-74
2022/03/24 09:56:19;;;;;;;49.47;35.50;;;15.20;99.90;;;;;;5042378;28;20106;-76
2022/03/24 09:58:47;;;;;;;54.92;38.40;;;15.20;99.90;;;;;;5044568;28;20223;-75
2022/03/24 10:01:13;;;;;;;48.30;36.13;;;15.20;99.90;;;;;;5068149;28;20067;-75
2022/03/24 10:03:40;;;;;;;47.85;36.35;;;15.30;99.90;;;;;;5058535;28;20052;-77
2022/03/24 10:06:09;;;;;;;51.42;35.63;;;15.40;99.90;;;;;;5043023;28;20173;-78
2022/03/24 10:08:36;;;;;;;47.25;35.25;;;15.40;99.90;;;;;;5067957;28;20099;-80
2022/03/24 10:11:06;;;;;;;48.38;36.15;;;15.40;99.90;;;;;;5055767;28;20090;-76
2022/03/24 10:13:51;;;;;;;45.25;35.20;;;15.40;99.90;;;;;;5075581;28;20047;-77
2022/03/24 10:16:41;;;;;;;45.78;34.72;;;15.60;99.90;;;;;;5076006;28;20456;-79
2022/03/24 10:19:15;;;;;;;48.88;35.72;;;15.60;99.90;;;;;;5068292;28;20285;-80
2022/03/24 10:21:44;;;;;;;;;;;15.60;99.90;;;;;;5043231;28;20510;-80
2022/03/24 10:24:13;;;;;;;47.63;35.13;;;15.60;99.90;;;;;;5059197;28;19920;-78
2022/03/24 10:26:46;;;;;;;48.60;36.53;;;15.80;99.90;;;;;;5057346;28;20059;-78
2022/03/24 10:29:19;;;;;;;46.95;36.15;;;15.90;99.90;;;;;;5061755;28;20050;-79
2022/03/24 10:31:50;;;;;;;47.47;35.42;;;16.30;99.90;;;;;;5070389;28;20072;-76
2022/03/24 10:34:26;;;;;;;48.15;36.80;;;16.10;99.90;;;;;;5057417;28;20044;-76
2022/03/24 10:36:51;;;;;;;49.53;36.42;;;16.10;99.90;;;;;;5059618;28;20048;-76
2022/03/24 10:39:24;;;;;;;50.55;36.35;;;16.30;99.90;;;;;;5051908;28;20247;-76
2022/03/24 10:41:49;;;;;;;45.28;33.83;;;16.10;99.90;;;;;;5027620;28;20048;-76
2022/03/24 10:44:15;;;;;;;48.63;35.20;;;16.40;99.90;;;;;;5022557;28;20300;-76
2022/03/24 10:46:42;;;;;;;45.08;34.55;;;16.50;99.90;;;;;;5063541;28;20049;-76
2022/03/24 10:49:23;;;;;;;49.83;35.63;;;16.80;99.90;;;;;;5049329;28;20044;-76
2022/03/24 10:51:51;;;;;;;42.35;35.05;;;16.50;99.90;;;;;;5054105;28;20089;-77
2022/03/24 10:54:38;;;;;;;46.20;37.55;;;16.70;99.90;;;;;;5072933;28;20062;-76
2022/03/24 10:57:09;;;;;;;61.92;38.20;;;16.80;99.90;;;;;;5062709;28;20323;-76
2022/03/24 10:59:40;;;;;;;44.33;35.60;;;16.90;99.90;;;;;;5057812;28;20090;-75
2022/03/24 11:02:08;;;;;;;47.97;36.13;;;17.00;99.90;;;;;;5052892;28;20052;-76
2022/03/24 11:04:34;;;;;;;45.55;36.15;;;17.00;99.90;;;;;;5065456;28;20357;-76
2022/03/24 11:06:59;;;;;;;51.03;37.50;;;17.10;99.90;;;;;;5073893;28;20048;-77
2022/03/24 11:09:33;;;;;;;46.40;36.78;;;17.30;99.90;;;;;;5040388;28;20192;-76
2022/03/24 11:12:26;;;;;;;43.53;34.60;;;17.00;99.90;;;;;;5071563;28;20044;-75
2022/03/24 11:15:00;;;;;;;47.97;35.53;;;17.30;99.90;;;;;;5067885;28;20495;-76
2022/03/24 11:17:28;;;;;;;42.28;34.25;;;17.20;99.90;;;;;;5060670;28;20325;-75
2022/03/24 11:20:13;;;;;;;46.17;35.92;;;17.00;99.90;;;;;;5055818;28;20055;-75
2022/03/24 11:23:00;;;;;;;43.42;35.00;;;17.30;95.80;;;;;;5068066;28;20054;-76
2022/03/24 11:25:29;;;;;;;47.78;35.20;;;17.50;99.90;;;;;;5053821;28;20153;-76
2022/03/24 11:27:55;;;;;;;41.92;34.63;;;17.30;99.90;;;;;;5058993;28;20372;-76
2022/03/24 11:30:23;;;;;;;41.25;33.40;;;17.40;99.90;;;;;;5060698;28;20335;-76
2022/03/24 11:32:52;;;;;;;43.60;33.17;;;17.50;99.90;;;;;;5048685;28;20048;-76
2022/03/24 11:35:19;;;;;;;45.78;36.05;;;17.50;98.70;;;;;;5058273;28;20376;-76
2022/03/24 11:37:45;;;;;;;48.65;36.42;;;17.50;99.70;;;;;;5071369;28;20044;-76
2022/03/24 11:40:12;;;;;;;45.22;35.97;;;17.60;99.40;;;;;;5057309;28;20041;-75
2022/03/24 11:42:49;;;;;;;41.13;32.60;;;17.60;97.50;;;;;;5056593;28;20127;-75
2022/03/24 11:45:28;;;;;;;44.63;34.28;;;17.60;95.20;;;;;;5073225;28;20106;-76
2022/03/24 11:48:06;;;;;;;42.10;34.25;;;17.50;95.50;;;;;;5045009;28;20037;-76
2022/03/24 11:50:47;;;;;;;46.30;32.75;;;17.50;96.60;;;;;;5053683;28;20094;-74
2022/03/24 11:53:25;;;;;;;43.30;33.00;;;17.30;93.90;;;;;;5038063;28;20065;-76
2022/03/24 11:56:01;;;;;;;43.30;33.83;;;17.50;92.60;;;;;;5056383;28;20170;-76
2022/03/24 11:58:41;;;;;;;42.05;33.88;;;17.40;93.30;;;;;;5068315;28;20278;-76
2022/03/24 12:01:21;;;;;;;41.45;33.28;;;17.30;91.10;;;;;;5062412;28;20435;-76
2022/03/24 12:03:51;;;;;;;43.38;33.47;;;17.40;93.00;;;;;;5053609;28;20051;-76
2022/03/24 12:06:18;;;;;;;41.88;33.53;;;17.10;92.00;;;;;;5035288;28;20048;-76
2022/03/24 12:08:59;;;;;;;41.08;32.58;;;17.20;92.10;;;;;;5045021;28;20040;-77
2022/03/24 12:11:34;;;;;;;44.50;32.88;;;17.20;91.90;;;;;;5070845;28;20098;-76
2022/03/24 12:14:09;;;;;;;49.78;36.55;;;17.00;90.20;;;;;;5064345;28;20044;-76
2022/03/24 12:16:40;;;;;;;46.25;36.00;;;17.00;91.90;;;;;;5051087;28;20080;-76
2022/03/24 12:19:32;;;;;;;48.72;37.08;;;16.80;91.70;;;;;;5071358;28;20064;-76
2022/03/24 12:21:59;;;;;;;48.53;36.83;;;16.60;90.70;;;;;;5054527;28;20071;-75
2022/03/24 12:24:34;;;;;;;48.35;36.33;;;16.70;92.50;;;;;;5056615;28;20382;-75
2022/03/24 12:27:05;;;;;;;47.17;37.08;;;16.80;92.40;;;;;;5067136;28;20118;-76
2022/03/24 12:29:31;;;;;;;48.88;36.67;;;16.70;92.30;;;;;;5036970;28;20029;-75
2022/03/24 12:31:59;;;;;;;48.47;35.55;;;16.70;92.30;;;;;;5039098;28;20040;-75
2022/03/24 12:34:30;;;;;;;47.58;37.05;;;16.80;91.40;;;;;;5073351;28;20045;-76
2022/03/24 12:36:56;;;;;;;47.90;36.13;;;16.80;91.50;;;;;;5050742;28;20111;-76